sensor_id;sensor_type;location;lat;lon;timestamp;pressure;altitude;pressure_sealevel;temperature;humidity
46718;BME280;32448;44.960;-0.698;2024-02-23T00:00:38;100259.69;;;5.17;100.00
46718;BME280;32448;44.960;-0.698;2024-02-23T00:03:05;100257.97;;;5.17;100.00
46718;BME280;32448;44.960;-0.698;2024-02-23T00:05:32;100247.53;;;5.14;100.00
46718;BME280;32448;44.960;-0.698;2024-02-23T00:07:59;100257.16;;;5.20;100.00
46718;BME280;32448;44.960;-0.698;2024-02-23T00:10:26;100255.66;;;5.26;100.00
46718;BME280;32448;44.960;-0.698;2024-02-23T00:12:53;100248.81;;;5.28;100.00
46718;BME280;32448;44.960;-0.698;2024-02-23T00:15:20;100243.59;;;5.27;100.00
46718;BME280;32448;44.960;-0.698;2024-02-23T00:17:46;100247.84;;;5.25;100.00
46718;BME280;32448;44.960;-0.698;2024-02-23T00:20:13;100259.13;;;5.27;100.00
46718;BME280;32448;44.960;-0.698;2024-02-23T00:22:42;100253.94;;;5.27;100.00
46718;BME280;32448;44.960;-0.698;2024-02-23T00:25:08;100236.44;;;5.20;100.00
46718;BME280;32448;44.960;-0.698;2024-02-23T00:27:35;100251.34;;;5.27;100.00
46718;BME280;32448;44.960;-0.698;2024-02-23T00:30:03;100220.59;;;5.09;100.00
46718;BME280;32448;44.960;-0.698;2024-02-23T00:32:30;100233.91;;;5.21;100.00
46718;BME280;32448;44.960;-0.698;2024-02-23T00:34:57;100236.59;;;5.24;100.00
46718;BME280;32448;44.960;-0.698;2024-02-23T00:37:25;100225.19;;;5.18;100.00
46718;BME280;32448;44.960;-0.698;2024-02-23T00:39:52;100225.19;;;5.18;100.00
46718;BME280;32448;44.960;-0.698;2024-02-23T00:42:18;100208.66;;;5.14;100.00
46718;BME280;32448;44.960;-0.698;2024-02-23T00:44:47;100220.00;;;5.18;100.00
46718;BME280;32448;44.960;-0.698;2024-02-23T00:47:14;100219.13;;;5.17;100.00
46718;BME280;32448;44.960;-0.698;2024-02-23T00:49:41;100221.75;;;5.19;100.00
46718;BME280;32448;44.960;-0.698;2024-02-23T00:52:07;100219.34;;;5.25;100.00
46718;BME280;32448;44.960;-0.698;2024-02-23T00:54:34;100216.03;;;5.30;100.00
46718;BME280;32448;44.960;-0.698;2024-02-23T00:57:01;100212.59;;;5.31;100.00
46718;BME280;32448;44.960;-0.698;2024-02-23T00:59:28;100198.19;;;5.39;100.00
46718;BME280;32448;44.960;-0.698;2024-02-23T01:01:55;100201.91;;;5.49;100.00
46718;BME280;32448;44.960;-0.698;2024-02-23T01:04:22;100197.56;;;5.48;100.00
46718;BME280;32448;44.960;-0.698;2024-02-23T01:06:49;100173.06;;;5.37;100.00
46718;BME280;32448;44.960;-0.698;2024-02-23T01:09:18;100188.13;;;5.50;100.00
46718;BME280;32448;44.960;-0.698;2024-02-23T01:11:50;100192.31;;;5.46;100.00
46718;BME280;32448;44.960;-0.698;2024-02-23T01:14:17;100180.94;;;5.41;100.00
46718;BME280;32448;44.960;-0.698;2024-02-23T01:16:44;100171.34;;;5.37;100.00
46718;BME280;32448;44.960;-0.698;2024-02-23T01:19:11;100185.09;;;5.35;100.00
46718;BME280;32448;44.960;-0.698;2024-02-23T01:21:38;100152.75;;;5.22;100.00
46718;BME280;32448;44.960;-0.698;2024-02-23T01:24:05;100166.81;;;5.30;100.00
46718;BME280;32448;44.960;-0.698;2024-02-23T01:26:32;100163.38;;;5.30;100.00
46718;BME280;32448;44.960;-0.698;2024-02-23T01:28:59;100164.97;;;5.26;100.00
46718;BME280;32448;44.960;-0.698;2024-02-23T01:31:26;100175.38;;;5.28;100.00
46718;BME280;32448;44.960;-0.698;2024-02-23T01:33:53;100171.88;;;5.26;100.00
46718;BME280;32448;44.960;-0.698;2024-02-23T01:36:20;100170.94;;;5.24;100.00
46718;BME280;32448;44.960;-0.698;2024-02-23T01:38:47;100164.97;;;5.26;100.00
46718;BME280;32448;44.960;-0.698;2024-02-23T01:41:14;100161.31;;;5.20;100.00
46718;BME280;32448;44.960;-0.698;2024-02-23T01:43:41;100152.69;;;5.19;100.00
46718;BME280;32448;44.960;-0.698;2024-02-23T01:46:08;100132.50;;;5.07;100.00
46718;BME280;32448;44.960;-0.698;2024-02-23T01:48:35;100147.53;;;5.19;100.00
46718;BME280;32448;44.960;-0.698;2024-02-23T01:51:02;100147.47;;;5.18;100.00
46718;BME280;32448;44.960;-0.698;2024-02-23T01:53:30;100141.31;;;5.14;100.00
46718;BME280;32448;44.960;-0.698;2024-02-23T01:55:58;100132.66;;;5.13;100.00
46718;BME280;32448;44.960;-0.698;2024-02-23T01:58:26;100124.00;;;5.13;100.00
46718;BME280;32448;44.960;-0.698;2024-02-23T02:00:53;100123.22;;;5.16;100.00
46718;BME280;32448;44.960;-0.698;2024-02-23T02:03:20;100116.25;;;5.13;100.00
46718;BME280;32448;44.960;-0.698;2024-02-23T02:05:47;100127.69;;;5.21;100.00
46718;BME280;32448;44.960;-0.698;2024-02-23T02:08:16;100130.41;;;5.26;100.00
46718;BME280;32448;44.960;-0.698;2024-02-23T02:10:43;100123.88;;;5.38;100.00
46718;BME280;32448;44.960;-0.698;2024-02-23T02:13:12;100089.34;;;5.39;100.00
46718;BME280;32448;44.960;-0.698;2024-02-23T02:15:39;100125.22;;;5.57;100.00
46718;BME280;32448;44.960;-0.698;2024-02-23T02:18:06;100111.47;;;5.60;100.00
46718;BME280;32448;44.960;-0.698;2024-02-23T02:20:34;100094.34;;;5.66;100.00
46718;BME280;32448;44.960;-0.698;2024-02-23T02:23:03;100091.31;;;5.82;100.00
46718;BME280;32448;44.960;-0.698;2024-02-23T02:25:29;100093.81;;;5.79;100.00
46718;BME280;32448;44.960;-0.698;2024-02-23T02:27:56;100088.72;;;5.82;100.00
46718;BME280;32448;44.960;-0.698;2024-02-23T02:30:23;100052.22;;;5.75;100.00
46718;BME280;32448;44.960;-0.698;2024-02-23T02:32:50;100081.25;;;5.93;100.00
46718;BME280;32448;44.960;-0.698;2024-02-23T02:35:17;100066.69;;;6.00;100.00
46718;BME280;32448;44.960;-0.698;2024-02-23T02:37:44;100065.75;;;5.96;100.00
46718;BME280;32448;44.960;-0.698;2024-02-23T02:40:11;100072.69;;;5.97;100.00
46718;BME280;32448;44.960;-0.698;2024-02-23T02:42:37;100070.06;;;5.96;100.00
46718;BME280;32448;44.960;-0.698;2024-02-23T02:45:04;100060.63;;;5.99;100.00
46718;BME280;32448;44.960;-0.698;2024-02-23T02:47:31;100063.16;;;5.96;100.00
46718;BME280;32448;44.960;-0.698;2024-02-23T02:49:59;100115.09;;;5.99;100.00
46718;BME280;32448;44.960;-0.698;2024-02-23T02:52:26;100103.13;;;6.04;100.00
46718;BME280;32448;44.960;-0.698;2024-02-23T02:54:53;100062.34;;;5.99;100.00
46718;BME280;32448;44.960;-0.698;2024-02-23T02:57:19;100057.41;;;6.09;100.00
46718;BME280;32448;44.960;-0.698;2024-02-23T02:59:46;100060.25;;;6.18;100.00
46718;BME280;32448;44.960;-0.698;2024-02-23T03:02:13;100061.88;;;6.15;100.00
46718;BME280;32448;44.960;-0.698;2024-02-23T03:04:50;100088.69;;;6.15;100.00
46718;BME280;32448;44.960;-0.698;2024-02-23T03:07:17;100078.44;;;6.21;100.00
46718;BME280;32448;44.960;-0.698;2024-02-23T03:09:44;100082.63;;;6.15;100.00
46718;BME280;32448;44.960;-0.698;2024-02-23T03:12:11;100074.94;;;6.18;100.00
46718;BME280;32448;44.960;-0.698;2024-02-23T03:14:38;100085.31;;;6.18;100.00
46718;BME280;32448;44.960;-0.698;2024-02-23T03:17:07;100075.91;;;6.23;100.00
46718;BME280;32448;44.960;-0.698;2024-02-23T03:19:38;100057.59;;;6.17;100.00
46718;BME280;32448;44.960;-0.698;2024-02-23T03:22:05;100054.25;;;6.22;100.00
46718;BME280;32448;44.960;-0.698;2024-02-23T03:24:32;100033.38;;;6.16;100.00
46718;BME280;32448;44.960;-0.698;2024-02-23T03:26:59;100062.19;;;6.29;100.00
46718;BME280;32448;44.960;-0.698;2024-02-23T03:29:27;100055.16;;;6.25;100.00
46718;BME280;32448;44.960;-0.698;2024-02-23T03:31:56;100045.59;;;6.22;100.00
46718;BME280;32448;44.960;-0.698;2024-02-23T03:34:24;100042.19;;;6.25;100.00
46718;BME280;32448;44.960;-0.698;2024-02-23T03:36:51;100023.91;;;6.20;100.00
46718;BME280;32448;44.960;-0.698;2024-02-23T03:39:18;100016.97;;;6.19;100.00
46718;BME280;32448;44.960;-0.698;2024-02-23T03:41:45;100013.53;;;6.18;100.00
46718;BME280;32448;44.960;-0.698;2024-02-23T03:44:12;100011.78;;;6.19;100.00
46718;BME280;32448;44.960;-0.698;2024-02-23T03:46:39;100000.38;;;6.11;100.00
46718;BME280;32448;44.960;-0.698;2024-02-23T03:49:05;100005.47;;;6.08;100.00
46718;BME280;32448;44.960;-0.698;2024-02-23T03:51:33;99999.44;;;6.07;100.00
46718;BME280;32448;44.960;-0.698;2024-02-23T03:54:01;100022.88;;;6.12;100.00
46718;BME280;32448;44.960;-0.698;2024-02-23T03:56:28;100012.50;;;6.12;100.00
46718;BME280;32448;44.960;-0.698;2024-02-23T03:58:55;100020.72;;;6.32;100.00
46718;BME280;32448;44.960;-0.698;2024-02-23T04:01:22;100009.53;;;6.34;100.00
46718;BME280;32448;44.960;-0.698;2024-02-23T04:03:49;99997.59;;;6.42;100.00
46718;BME280;32448;44.960;-0.698;2024-02-23T04:06:16;99993.38;;;6.47;100.00
46718;BME280;32448;44.960;-0.698;2024-02-23T04:08:44;100002.22;;;6.57;100.00
46718;BME280;32448;44.960;-0.698;2024-02-23T04:11:14;99985.75;;;6.55;100.00
46718;BME280;32448;44.960;-0.698;2024-02-23T04:13:41;99991.00;;;6.58;100.00
46718;BME280;32448;44.960;-0.698;2024-02-23T04:16:08;99998.72;;;6.55;100.00
46718;BME280;32448;44.960;-0.698;2024-02-23T04:18:34;99994.50;;;6.60;100.00
46718;BME280;32448;44.960;-0.698;2024-02-23T04:21:01;100003.16;;;6.59;100.00
46718;BME280;32448;44.960;-0.698;2024-02-23T04:23:28;99990.13;;;6.57;100.00
46718;BME280;32448;44.960;-0.698;2024-02-23T04:25:55;99996.16;;;6.56;100.00
46718;BME280;32448;44.960;-0.698;2024-02-23T04:28:22;99985.66;;;6.50;100.00
46718;BME280;32448;44.960;-0.698;2024-02-23T04:30:49;99983.00;;;6.47;100.00
46718;BME280;32448;44.960;-0.698;2024-02-23T04:33:16;99979.63;;;6.53;100.00
46718;BME280;32448;44.960;-0.698;2024-02-23T04:35:43;99974.44;;;6.53;100.00
46718;BME280;32448;44.960;-0.698;2024-02-23T04:38:10;99972.78;;;6.56;100.00
46718;BME280;32448;44.960;-0.698;2024-02-23T04:40:37;99959.78;;;6.55;100.00
46718;BME280;32448;44.960;-0.698;2024-02-23T04:43:04;99951.16;;;6.56;100.00
46718;BME280;32448;44.960;-0.698;2024-02-23T04:45:31;99952.13;;;6.61;100.00
46718;BME280;32448;44.960;-0.698;2024-02-23T04:47:58;99946.88;;;6.58;100.00
46718;BME280;32448;44.960;-0.698;2024-02-23T04:50:25;99942.53;;;6.57;100.00
46718;BME280;32448;44.960;-0.698;2024-02-23T04:52:52;99932.91;;;6.53;100.00
46718;BME280;32448;44.960;-0.698;2024-02-23T04:55:18;99956.44;;;6.61;100.00
46718;BME280;32448;44.960;-0.698;2024-02-23T04:57:45;99939.09;;;6.58;100.00
46718;BME280;32448;44.960;-0.698;2024-02-23T05:00:12;99972.34;;;6.77;100.00
46718;BME280;32448;44.960;-0.698;2024-02-23T05:02:39;99974.09;;;6.78;100.00
46718;BME280;32448;44.960;-0.698;2024-02-23T05:05:06;99963.53;;;6.69;100.00
46718;BME280;32448;44.960;-0.698;2024-02-23T05:07:34;99979.38;;;6.83;100.00
46718;BME280;32448;44.960;-0.698;2024-02-23T05:10:01;99968.06;;;6.79;100.00
46718;BME280;32448;44.960;-0.698;2024-02-23T05:12:28;99981.03;;;6.79;100.00
46718;BME280;32448;44.960;-0.698;2024-02-23T05:14:55;99980.97;;;6.76;100.00
46718;BME280;32448;44.960;-0.698;2024-02-23T05:17:22;99980.34;;;6.88;100.00
46718;BME280;32448;44.960;-0.698;2024-02-23T05:19:50;99980.34;;;6.88;100.00
46718;BME280;32448;44.960;-0.698;2024-02-23T05:22:17;99960.22;;;6.78;100.00
46718;BME280;32448;44.960;-0.698;2024-02-23T05:24:44;99970.59;;;6.76;100.00
46718;BME280;32448;44.960;-0.698;2024-02-23T05:27:11;99966.31;;;6.78;100.00
46718;BME280;32448;44.960;-0.698;2024-02-23T05:29:38;99968.06;;;6.79;100.00
46718;BME280;32448;44.960;-0.698;2024-02-23T05:32:05;99968.09;;;6.81;100.00
46718;BME280;32448;44.960;-0.698;2024-02-23T05:34:32;99944.44;;;6.67;100.00
46718;BME280;32448;44.960;-0.698;2024-02-23T05:36:59;99960.09;;;6.70;100.00
46718;BME280;32448;44.960;-0.698;2024-02-23T05:39:26;99956.66;;;6.71;100.00
46718;BME280;32448;44.960;-0.698;2024-02-23T05:41:53;99947.19;;;6.73;100.00
46718;BME280;32448;44.960;-0.698;2024-02-23T05:44:20;99933.22;;;6.68;100.00
46718;BME280;32448;44.960;-0.698;2024-02-23T05:46:47;99945.44;;;6.72;100.00
46718;BME280;32448;44.960;-0.698;2024-02-23T05:49:14;99940.06;;;6.65;100.00
46718;BME280;32448;44.960;-0.698;2024-02-23T05:51:41;99918.03;;;6.44;100.00
46718;BME280;32448;44.960;-0.698;2024-02-23T05:54:08;99940.69;;;6.51;100.00
46718;BME280;32448;44.960;-0.698;2024-02-23T05:56:35;99942.41;;;6.52;100.00
46718;BME280;32448;44.960;-0.698;2024-02-23T05:59:02;99948.31;;;6.44;100.00
46718;BME280;32448;44.960;-0.698;2024-02-23T06:01:29;99963.00;;;6.43;100.00
46718;BME280;32448;44.960;-0.698;2024-02-23T06:03:56;99940.19;;;6.27;100.00
46718;BME280;32448;44.960;-0.698;2024-02-23T06:06:22;99955.94;;;6.36;100.00
46718;BME280;32448;44.960;-0.698;2024-02-23T06:08:50;99929.75;;;6.24;100.00
46718;BME280;32448;44.960;-0.698;2024-02-23T06:11:17;99955.97;;;6.38;100.00
46718;BME280;32448;44.960;-0.698;2024-02-23T06:13:44;99947.09;;;6.27;100.00
46718;BME280;32448;44.960;-0.698;2024-02-23T06:16:11;99958.41;;;6.29;100.00
46718;BME280;32448;44.960;-0.698;2024-02-23T06:18:38;99938.28;;;6.20;100.00
46718;BME280;32448;44.960;-0.698;2024-02-23T06:21:15;99958.25;;;6.22;100.00
46718;BME280;32448;44.960;-0.698;2024-02-23T06:23:42;99968.59;;;6.21;100.00
46718;BME280;32448;44.960;-0.698;2024-02-23T06:26:10;99950.13;;;6.06;100.00
46718;BME280;32448;44.960;-0.698;2024-02-23T06:28:37;99979.09;;;6.26;100.00
46718;BME280;32448;44.960;-0.698;2024-02-23T06:31:05;99955.34;;;6.09;100.00
46718;BME280;32448;44.960;-0.698;2024-02-23T06:33:32;99951.03;;;6.09;100.00
46718;BME280;32448;44.960;-0.698;2024-02-23T06:35:59;99977.63;;;6.38;100.00
46718;BME280;32448;44.960;-0.698;2024-02-23T06:38:27;99970.50;;;6.30;100.00
46718;BME280;32448;44.960;-0.698;2024-02-23T06:40:54;99952.22;;;6.24;100.00
46718;BME280;32448;44.960;-0.698;2024-02-23T06:43:22;99970.53;;;6.31;100.00
46718;BME280;32448;44.960;-0.698;2024-02-23T06:45:50;99992.28;;;6.36;100.00
46718;BME280;32448;44.960;-0.698;2024-02-23T06:48:17;99993.09;;;6.34;100.00
46718;BME280;32448;44.960;-0.698;2024-02-23T06:50:44;99993.00;;;6.31;100.00
46718;BME280;32448;44.960;-0.698;2024-02-23T06:53:11;99977.22;;;6.20;100.00
46718;BME280;32448;44.960;-0.698;2024-02-23T06:55:38;99983.47;;;6.30;100.00
46718;BME280;32448;44.960;-0.698;2024-02-23T06:58:05;99969.47;;;6.21;100.00
46718;BME280;32448;44.960;-0.698;2024-02-23T07:00:33;99981.72;;;6.27;100.00
46718;BME280;32448;44.960;-0.698;2024-02-23T07:03:02;99984.34;;;6.30;100.00
46718;BME280;32448;44.960;-0.698;2024-02-23T07:05:30;99961.59;;;6.17;100.00
46718;BME280;32448;44.960;-0.698;2024-02-23T07:07:57;99976.50;;;6.26;100.00
46718;BME280;32448;44.960;-0.698;2024-02-23T07:10:24;99991.25;;;6.28;100.00
46718;BME280;32448;44.960;-0.698;2024-02-23T07:12:52;99989.53;;;6.29;100.00
46718;BME280;32448;44.960;-0.698;2024-02-23T07:15:23;99983.34;;;6.24;100.00
46718;BME280;32448;44.960;-0.698;2024-02-23T07:17:54;99998.16;;;6.28;100.00
46718;BME280;32448;44.960;-0.698;2024-02-23T07:20:21;99985.91;;;6.22;100.00
46718;BME280;32448;44.960;-0.698;2024-02-23T07:22:49;99974.69;;;6.23;100.00
46718;BME280;32448;44.960;-0.698;2024-02-23T07:25:19;99980.94;;;6.33;100.00
46718;BME280;32448;44.960;-0.698;2024-02-23T07:27:50;99989.66;;;6.35;100.00
46718;BME280;32448;44.960;-0.698;2024-02-23T07:30:17;99995.69;;;6.34;100.00
46718;BME280;32448;44.960;-0.698;2024-02-23T07:32:44;99996.56;;;6.34;100.00
46718;BME280;32448;44.960;-0.698;2024-02-23T07:35:18;99955.66;;;6.22;100.00
46718;BME280;32448;44.960;-0.698;2024-02-23T07:37:46;99990.78;;;6.47;100.00
46718;BME280;32448;44.960;-0.698;2024-02-23T07:40:13;100009.28;;;6.63;100.00
46718;BME280;32448;44.960;-0.698;2024-02-23T07:42:43;100015.75;;;6.83;100.00
46718;BME280;32448;44.960;-0.698;2024-02-23T07:45:10;100036.19;;;7.11;100.00
46718;BME280;32448;44.960;-0.698;2024-02-23T07:47:37;100031.84;;;7.10;100.00
46718;BME280;32448;44.960;-0.698;2024-02-23T07:50:05;100037.97;;;7.12;100.00
46718;BME280;32448;44.960;-0.698;2024-02-23T07:52:32;100040.47;;;7.06;100.00
46718;BME280;32448;44.960;-0.698;2024-02-23T07:54:59;100063.72;;;7.02;100.00
46718;BME280;32448;44.960;-0.698;2024-02-23T07:57:29;100055.63;;;6.86;100.00
46718;BME280;32448;44.960;-0.698;2024-02-23T07:59:58;100066.50;;;7.11;100.00
46718;BME280;32448;44.960;-0.698;2024-02-23T08:02:24;100057.72;;;7.04;100.00
46718;BME280;32448;44.960;-0.698;2024-02-23T08:04:52;100009.00;;;6.92;100.00
46718;BME280;32448;44.960;-0.698;2024-02-23T08:07:19;99991.53;;;6.84;100.00
46718;BME280;32448;44.960;-0.698;2024-02-23T08:09:46;100027.28;;;6.99;100.00
46718;BME280;32448;44.960;-0.698;2024-02-23T08:12:13;100008.22;;;6.98;100.00
46718;BME280;32448;44.960;-0.698;2024-02-23T08:14:41;99993.50;;;6.96;100.00
46718;BME280;32448;44.960;-0.698;2024-02-23T08:17:10;99982.88;;;6.83;100.00
46718;BME280;32448;44.960;-0.698;2024-02-23T08:19:37;100008.00;;;6.86;100.00
46718;BME280;32448;44.960;-0.698;2024-02-23T08:22:04;100013.25;;;6.89;100.00
46718;BME280;32448;44.960;-0.698;2024-02-23T08:24:31;100017.44;;;6.81;100.00
46718;BME280;32448;44.960;-0.698;2024-02-23T08:26:58;100046.06;;;6.85;100.00
46718;BME280;32448;44.960;-0.698;2024-02-23T08:29:25;100062.72;;;6.93;100.00
46718;BME280;32448;44.960;-0.698;2024-02-23T08:31:52;100044.50;;;6.92;100.00
46718;BME280;32448;44.960;-0.698;2024-02-23T08:34:19;100036.78;;;6.95;100.00
46718;BME280;32448;44.960;-0.698;2024-02-23T08:36:47;99993.25;;;6.83;100.00
46718;BME280;32448;44.960;-0.698;2024-02-23T08:39:13;100004.75;;;6.98;100.00
46718;BME280;32448;44.960;-0.698;2024-02-23T08:41:40;100002.22;;;7.01;100.00
46718;BME280;32448;44.960;-0.698;2024-02-23T08:44:07;100014.22;;;6.94;100.00
46718;BME280;32448;44.960;-0.698;2024-02-23T08:46:34;100067.31;;;7.08;100.00
46718;BME280;32448;44.960;-0.698;2024-02-23T08:49:01;100074.34;;;7.12;100.00
46718;BME280;32448;44.960;-0.698;2024-02-23T08:51:28;100056.91;;;7.08;100.00
46718;BME280;32448;44.960;-0.698;2024-02-23T08:53:54;100043.09;;;7.09;100.00
46718;BME280;32448;44.960;-0.698;2024-02-23T08:56:26;100030.84;;;7.02;100.00
46718;BME280;32448;44.960;-0.698;2024-02-23T08:58:53;100025.50;;;6.94;100.00
46718;BME280;32448;44.960;-0.698;2024-02-23T09:01:20;100029.75;;;6.91;100.00
46718;BME280;32448;44.960;-0.698;2024-02-23T09:03:48;100049.13;;;7.08;100.00
46718;BME280;32448;44.960;-0.698;2024-02-23T09:06:14;100032.56;;;7.02;100.00
46718;BME280;32448;44.960;-0.698;2024-02-23T09:08:41;100029.84;;;6.96;100.00
46718;BME280;32448;44.960;-0.698;2024-02-23T09:11:08;100036.78;;;6.97;100.00
46718;BME280;32448;44.960;-0.698;2024-02-23T09:13:38;100058.41;;;6.94;100.00
46718;BME280;32448;44.960;-0.698;2024-02-23T09:16:05;100031.56;;;6.97;100.00
46718;BME280;32448;44.960;-0.698;2024-02-23T09:18:34;100039.34;;;6.93;100.00
46718;BME280;32448;44.960;-0.698;2024-02-23T09:21:01;100036.03;;;7.02;100.00
46718;BME280;32448;44.960;-0.698;2024-02-23T09:23:28;100001.28;;;6.96;100.00
46718;BME280;32448;44.960;-0.698;2024-02-23T09:25:54;100034.66;;;7.21;100.00
46718;BME280;32448;44.960;-0.698;2024-02-23T09:28:21;100007.72;;;7.16;100.00
46718;BME280;32448;44.960;-0.698;2024-02-23T09:30:48;100034.16;;;7.42;100.00
46718;BME280;32448;44.960;-0.698;2024-02-23T09:33:15;100008.16;;;7.42;100.00
46718;BME280;32448;44.960;-0.698;2024-02-23T09:35:42;100018.00;;;7.59;100.00
46718;BME280;32448;44.960;-0.698;2024-02-23T09:38:09;100005.03;;;7.62;100.00
46718;BME280;32448;44.960;-0.698;2024-02-23T09:40:36;100000.88;;;7.72;100.00
46718;BME280;32448;44.960;-0.698;2024-02-23T09:43:07;100014.13;;;7.87;100.00
46718;BME280;32448;44.960;-0.698;2024-02-23T09:45:35;100016.09;;;8.02;100.00
46718;BME280;32448;44.960;-0.698;2024-02-23T09:48:02;100016.06;;;8.00;100.00
46718;BME280;32448;44.960;-0.698;2024-02-23T09:50:30;100023.88;;;8.02;100.00
46718;BME280;32448;44.960;-0.698;2024-02-23T09:52:58;100001.25;;;7.95;100.00
46718;BME280;32448;44.960;-0.698;2024-02-23T09:55:25;100001.25;;;7.98;100.00
46718;BME280;32448;44.960;-0.698;2024-02-23T09:57:55;100020.63;;;8.15;100.00
46718;BME280;32448;44.960;-0.698;2024-02-23T10:00:24;100016.31;;;8.17;100.00
46718;BME280;32448;44.960;-0.698;2024-02-23T10:02:53;100025.06;;;8.22;100.00
46718;BME280;32448;44.960;-0.698;2024-02-23T10:05:23;100025.31;;;8.37;100.00
46718;BME280;32448;44.960;-0.698;2024-02-23T10:08:00;99998.25;;;8.29;100.00
46718;BME280;32448;44.960;-0.698;2024-02-23T10:10:32;100023.69;;;8.47;100.00
46718;BME280;32448;44.960;-0.698;2024-02-23T10:13:00;100034.34;;;8.65;100.00
46718;BME280;32448;44.960;-0.698;2024-02-23T10:15:30;99997.00;;;8.65;100.00
46718;BME280;32448;44.960;-0.698;2024-02-23T10:17:58;100002.44;;;8.85;100.00
46718;BME280;32448;44.960;-0.698;2024-02-23T10:20:25;100006.63;;;8.69;100.00
46718;BME280;32448;44.960;-0.698;2024-02-23T10:22:52;99966.44;;;8.49;100.00
46718;BME280;32448;44.960;-0.698;2024-02-23T10:25:20;100005.66;;;8.61;100.00
46718;BME280;32448;44.960;-0.698;2024-02-23T10:27:48;100006.63;;;8.69;100.00
46718;BME280;32448;44.960;-0.698;2024-02-23T10:30:15;100017.06;;;8.73;100.00
46718;BME280;32448;44.960;-0.698;2024-02-23T10:32:42;100013.47;;;8.61;100.00
46718;BME280;32448;44.960;-0.698;2024-02-23T10:35:13;100006.53;;;8.63;100.00
46718;BME280;32448;44.960;-0.698;2024-02-23T10:37:43;99979.59;;;8.61;100.00
46718;BME280;32448;44.960;-0.698;2024-02-23T10:40:16;99995.34;;;8.73;100.00
46718;BME280;32448;44.960;-0.698;2024-02-23T10:42:44;99979.75;;;8.74;100.00
46718;BME280;32448;44.960;-0.698;2024-02-23T10:45:18;99978.03;;;8.76;100.00
46718;BME280;32448;44.960;-0.698;2024-02-23T10:47:47;99979.00;;;8.85;100.00
46718;BME280;32448;44.960;-0.698;2024-02-23T10:50:14;99950.28;;;8.79;100.00
46718;BME280;32448;44.960;-0.698;2024-02-23T10:52:42;99963.38;;;8.83;100.00
46718;BME280;32448;44.960;-0.698;2024-02-23T10:55:10;99988.66;;;8.96;100.00
46718;BME280;32448;44.960;-0.698;2024-02-23T10:57:37;100002.72;;;9.10;100.00
46718;BME280;32448;44.960;-0.698;2024-02-23T11:00:05;99997.53;;;9.10;100.00
46718;BME280;32448;44.960;-0.698;2024-02-23T11:02:40;100006.25;;;9.12;100.00
46718;BME280;32448;44.960;-0.698;2024-02-23T11:05:08;99992.25;;;9.03;100.00
46718;BME280;32448;44.960;-0.698;2024-02-23T11:07:39;99993.13;;;9.06;100.00
46718;BME280;32448;44.960;-0.698;2024-02-23T11:10:07;99995.63;;;8.96;100.00
46718;BME280;32448;44.960;-0.698;2024-02-23T11:12:35;99975.59;;;8.90;100.00
46718;BME280;32448;44.960;-0.698;2024-02-23T11:15:03;99973.81;;;8.88;100.00
46718;BME280;32448;44.960;-0.698;2024-02-23T11:17:31;99960.75;;;8.83;100.00
46718;BME280;32448;44.960;-0.698;2024-02-23T11:20:03;99993.88;;;8.93;100.00
46718;BME280;32448;44.960;-0.698;2024-02-23T11:22:34;99972.06;;;8.87;100.00
46718;BME280;32448;44.960;-0.698;2024-02-23T11:25:06;99973.88;;;8.95;100.00
46718;BME280;32448;44.960;-0.698;2024-02-23T11:27:38;99973.97;;;9.01;100.00
46718;BME280;32448;44.960;-0.698;2024-02-23T11:30:10;99989.78;;;9.17;100.00
46718;BME280;32448;44.960;-0.698;2024-02-23T11:35:11;99957.69;;;9.28;100.00
46718;BME280;32448;44.960;-0.698;2024-02-23T11:37:51;99971.72;;;9.41;100.00
46718;BME280;32448;44.960;-0.698;2024-02-23T11:40:25;99962.16;;;9.41;100.00
46718;BME280;32448;44.960;-0.698;2024-02-23T11:42:52;99958.50;;;9.20;100.00
46718;BME280;32448;44.960;-0.698;2024-02-23T11:45:21;99995.03;;;9.23;100.00
46718;BME280;32448;44.960;-0.698;2024-02-23T11:47:48;100007.13;;;9.15;100.00
46718;BME280;32448;44.960;-0.698;2024-02-23T11:50:15;100021.84;;;9.11;100.00
46718;BME280;32448;44.960;-0.698;2024-02-23T11:52:46;100018.19;;;8.95;100.00
46718;BME280;32448;44.960;-0.698;2024-02-23T11:55:19;99982.41;;;8.77;100.00
46718;BME280;32448;44.960;-0.698;2024-02-23T11:57:50;100003.44;;;8.93;100.00
46718;BME280;32448;44.960;-0.698;2024-02-23T12:00:30;99966.81;;;8.82;100.00
46718;BME280;32448;44.960;-0.698;2024-02-23T12:02:57;99980.78;;;8.89;100.00
46718;BME280;32448;44.960;-0.698;2024-02-23T12:05:24;99964.09;;;8.71;100.00
46718;BME280;32448;44.960;-0.698;2024-02-23T12:07:52;99954.53;;;8.73;100.00
46718;BME280;32448;44.960;-0.698;2024-02-23T12:10:20;99972.16;;;8.93;100.00
46718;BME280;32448;44.960;-0.698;2024-02-23T12:12:47;99972.97;;;8.89;100.00
46718;BME280;32448;44.960;-0.698;2024-02-23T12:15:14;99986.16;;;9.02;100.00
46718;BME280;32448;44.960;-0.698;2024-02-23T12:17:50;99989.56;;;8.97;100.00
46718;BME280;32448;44.960;-0.698;2024-02-23T12:20:17;99984.41;;;9.01;100.00
46718;BME280;32448;44.960;-0.698;2024-02-23T12:22:47;99981.91;;;9.13;100.00
46718;BME280;32448;44.960;-0.698;2024-02-23T12:25:14;99974.97;;;9.14;100.00
46718;BME280;32448;44.960;-0.698;2024-02-23T12:27:42;99964.56;;;9.19;100.00
46718;BME280;32448;44.960;-0.698;2024-02-23T12:30:15;99957.56;;;9.11;100.00
46718;BME280;32448;44.960;-0.698;2024-02-23T12:32:44;99974.16;;;9.21;100.00
46718;BME280;32448;44.960;-0.698;2024-02-23T12:35:12;99946.28;;;9.12;100.00
46718;BME280;32448;44.960;-0.698;2024-02-23T12:37:39;99958.63;;;9.33;100.00
46718;BME280;32448;44.960;-0.698;2024-02-23T12:40:13;99956.91;;;9.35;100.00
46718;BME280;32448;44.960;-0.698;2024-02-23T12:42:40;99949.16;;;9.44;100.00
46718;BME280;32448;44.960;-0.698;2024-02-23T12:45:07;99936.22;;;9.57;100.00
46718;BME280;32448;44.960;-0.698;2024-02-23T12:47:34;99922.34;;;9.59;100.00
46718;BME280;32448;44.960;-0.698;2024-02-23T12:50:01;99909.22;;;9.53;100.00